N2126R KRDU-KORL
Flight info
| Callsign | N2126R |
|---|---|
| Flight time | 1h 27m |
| Altitude | 36000 |
| Route | ROZBO5 ROZBO SLITT SMPRR Q85 LPERD TTHOR3 |
| Aircraft | C25C/M-SDE2E3FGHRWXY/LB1 |
Departure
| Time | 2026-05-04 21:58 |
|---|---|
| Airport | Raleigh-Durham International Airport (KRDU) |
Arrival
| Time | 2026-05-04 23:26 |
|---|---|
| Airport | Orlando Executive Airport (KORL) |
| Time | Latitude | Longitude | Altitude | Speed | Heading |
|---|---|---|---|---|---|
| 2026-05-04 21:43 | 35.87929 | -78.78427 | 275 ft | 0 kts | 224° |
| 2026-05-04 21:54 | 35.87925 | -78.78433 | 427 ft | 3 kts | 224° |
| 2026-05-04 21:55 | 35.87892 | -78.78448 | 431 ft | 6 kts | 153° |
| 2026-05-04 21:55 | 35.87862 | -78.78415 | 424 ft | 6 kts | 134° |
| 2026-05-04 21:55 | 35.87834 | -78.78356 | 426 ft | 9 kts | 86° |
| 2026-05-04 21:55 | 35.87869 | -78.78295 | 425 ft | 9 kts | 46° |
| 2026-05-04 21:56 | 35.87866 | -78.78230 | 427 ft | 8 kts | 109° |
| 2026-05-04 21:56 | 35.87881 | -78.78172 | 427 ft | 7 kts | 45° |
| 2026-05-04 21:56 | 35.87920 | -78.78128 | 430 ft | 8 kts | 43° |
| 2026-05-04 21:56 | 35.87959 | -78.78081 | 427 ft | 8 kts | 47° |
| 2026-05-04 21:57 | 35.87968 | -78.78021 | 429 ft | 8 kts | 121° |
| 2026-05-04 21:57 | 35.87933 | -78.77976 | 430 ft | 7 kts | 138° |
| 2026-05-04 21:57 | 35.87892 | -78.77970 | 430 ft | 6 kts | 218° |
| 2026-05-04 21:57 | 35.87866 | -78.78003 | 426 ft | 5 kts | 225° |
| 2026-05-04 21:58 | 35.87684 | -78.78228 | 430 ft | 83 kts | 225° |
| 2026-05-04 21:58 | 35.87091 | -78.78946 | 598 ft | 142 kts | 224° |
| 2026-05-04 21:58 | 35.86262 | -78.79653 | 1399 ft | 147 kts | 197° |
| 2026-05-04 21:58 | 35.85204 | -78.79619 | 2314 ft | 161 kts | 174° |
| 2026-05-04 21:59 | 35.84015 | -78.79391 | 2976 ft | 183 kts | 175° |
| 2026-05-04 21:59 | 35.82698 | -78.79109 | 3614 ft | 203 kts | 169° |
| 2026-05-04 21:59 | 35.81249 | -78.78601 | 4284 ft | 228 kts | 166° |
| 2026-05-04 21:59 | 35.79644 | -78.78046 | 5052 ft | 250 kts | 167° |
| 2026-05-04 22:00 | 35.77915 | -78.77422 | 5828 ft | 268 kts | 167° |
| 2026-05-04 22:00 | 35.76073 | -78.76725 | 6578 ft | 286 kts | 162° |
| 2026-05-04 22:00 | 35.74227 | -78.75660 | 7318 ft | 297 kts | 158° |
| 2026-05-04 22:00 | 35.72313 | -78.74757 | 8061 ft | 292 kts | 167° |
| 2026-05-04 22:01 | 35.70339 | -78.74286 | 8808 ft | 286 kts | 177° |
| 2026-05-04 22:01 | 35.68366 | -78.74016 | 9585 ft | 284 kts | 177° |
| 2026-05-04 22:01 | 35.66400 | -78.73667 | 10324 ft | 289 kts | 175° |
| 2026-05-04 22:01 | 35.64379 | -78.73244 | 11045 ft | 300 kts | 174° |
| 2026-05-04 22:02 | 35.62317 | -78.72815 | 11783 ft | 309 kts | 175° |
| 2026-05-04 22:02 | 35.60158 | -78.72388 | 12547 ft | 318 kts | 175° |
| 2026-05-04 22:02 | 35.57946 | -78.71951 | 13332 ft | 326 kts | 175° |
| 2026-05-04 22:02 | 35.55682 | -78.71501 | 14090 ft | 333 kts | 175° |
| 2026-05-04 22:03 | 35.53375 | -78.71040 | 14810 ft | 338 kts | 175° |
| 2026-05-04 22:03 | 35.51039 | -78.70599 | 15548 ft | 341 kts | 178° |
| 2026-05-04 22:03 | 35.48671 | -78.70327 | 16299 ft | 344 kts | 177° |
| 2026-05-04 22:03 | 35.46281 | -78.69922 | 16998 ft | 350 kts | 176° |
| 2026-05-04 22:04 | 35.43866 | -78.69549 | 17831 ft | 350 kts | 177° |
| 2026-05-04 22:04 | 35.41430 | -78.69210 | 18535 ft | 353 kts | 178° |
| 2026-05-04 22:04 | 35.38985 | -78.68879 | 19247 ft | 355 kts | 177° |
| 2026-05-04 22:04 | 35.36518 | -78.68521 | 19943 ft | 358 kts | 177° |
| 2026-05-04 22:05 | 35.34027 | -78.68159 | 20646 ft | 361 kts | 177° |
| 2026-05-04 22:05 | 35.31518 | -78.67799 | 21373 ft | 364 kts | 178° |
| 2026-05-04 22:05 | 35.28994 | -78.67442 | 22072 ft | 367 kts | 178° |
| 2026-05-04 22:05 | 35.26439 | -78.67080 | 22771 ft | 371 kts | 178° |
| 2026-05-04 22:06 | 35.23865 | -78.66708 | 23469 ft | 375 kts | 178° |
| 2026-05-04 22:06 | 35.21264 | -78.66340 | 24056 ft | 378 kts | 178° |
| 2026-05-04 22:06 | 35.18640 | -78.65964 | 24629 ft | 381 kts | 178° |
| 2026-05-04 22:06 | 35.15998 | -78.65590 | 25167 ft | 384 kts | 179° |
| 2026-05-04 22:07 | 35.13331 | -78.65210 | 25693 ft | 387 kts | 179° |
| 2026-05-04 22:07 | 35.10648 | -78.64827 | 26225 ft | 390 kts | 179° |
| 2026-05-04 22:07 | 35.07944 | -78.64446 | 26731 ft | 393 kts | 179° |
| 2026-05-04 22:07 | 35.05218 | -78.64055 | 27228 ft | 395 kts | 179° |
| 2026-05-04 22:08 | 35.02478 | -78.63669 | 27699 ft | 398 kts | 179° |
| 2026-05-04 22:08 | 34.99724 | -78.63276 | 28231 ft | 398 kts | 179° |
| 2026-05-04 22:08 | 34.96983 | -78.62893 | 28873 ft | 395 kts | 180° |
| 2026-05-04 22:08 | 34.94301 | -78.62812 | 29462 ft | 388 kts | 188° |
| 2026-05-04 22:09 | 34.91619 | -78.63005 | 30079 ft | 385 kts | 190° |
| 2026-05-04 22:09 | 34.88950 | -78.63206 | 30647 ft | 382 kts | 190° |
| 2026-05-04 22:09 | 34.86302 | -78.63406 | 31202 ft | 380 kts | 190° |
| 2026-05-04 22:09 | 34.83672 | -78.63606 | 31740 ft | 378 kts | 191° |
| 2026-05-04 22:10 | 34.81052 | -78.63801 | 32250 ft | 376 kts | 191° |
| 2026-05-04 22:10 | 34.78450 | -78.63999 | 32750 ft | 374 kts | 191° |
| 2026-05-04 22:10 | 34.75859 | -78.64193 | 33242 ft | 372 kts | 191° |
| 2026-05-04 22:10 | 34.73287 | -78.64420 | 33707 ft | 367 kts | 194° |
| 2026-05-04 22:11 | 34.70797 | -78.64979 | 34144 ft | 360 kts | 201° |
| 2026-05-04 22:11 | 34.68424 | -78.65867 | 34515 ft | 354 kts | 207° |
| 2026-05-04 22:11 | 34.66189 | -78.67059 | 34862 ft | 348 kts | 214° |
| 2026-05-04 22:11 | 34.64113 | -78.68526 | 35213 ft | 343 kts | 219° |
| 2026-05-04 22:12 | 34.62115 | -78.70110 | 35562 ft | 342 kts | 219° |
| 2026-05-04 22:12 | 34.60117 | -78.71672 | 35910 ft | 342 kts | 219° |
| 2026-05-04 22:12 | 34.58105 | -78.73251 | 36020 ft | 347 kts | 219° |
| 2026-05-04 22:13 | 34.53991 | -78.76489 | 36059 ft | 362 kts | 219° |
| 2026-05-04 22:13 | 34.49685 | -78.79859 | 36072 ft | 374 kts | 219° |
| 2026-05-04 22:14 | 34.45256 | -78.83326 | 36082 ft | 382 kts | 219° |
| 2026-05-04 22:14 | 34.40880 | -78.86964 | 36084 ft | 382 kts | 221° |
| 2026-05-04 22:15 | 34.36503 | -78.90645 | 36089 ft | 384 kts | 220° |
| 2026-05-04 22:15 | 34.32116 | -78.94348 | 36088 ft | 385 kts | 221° |
| 2026-05-04 22:16 | 34.27713 | -78.98056 | 36088 ft | 386 kts | 221° |
| 2026-05-04 22:16 | 34.23303 | -79.01762 | 36084 ft | 386 kts | 221° |
| 2026-05-04 22:17 | 34.18884 | -79.05473 | 36069 ft | 387 kts | 221° |
| 2026-05-04 22:17 | 34.14465 | -79.09180 | 36065 ft | 387 kts | 221° |
| 2026-05-04 22:18 | 34.10046 | -79.12883 | 36061 ft | 387 kts | 221° |
| 2026-05-04 22:18 | 34.05623 | -79.16583 | 36057 ft | 387 kts | 221° |
| 2026-05-04 22:19 | 34.01196 | -79.20281 | 36076 ft | 387 kts | 221° |
| 2026-05-04 22:19 | 33.96800 | -79.23953 | 36076 ft | 387 kts | 221° |
| 2026-05-04 22:20 | 33.92378 | -79.27643 | 36074 ft | 386 kts | 221° |
| 2026-05-04 22:20 | 33.87958 | -79.31327 | 36075 ft | 386 kts | 221° |
| 2026-05-04 22:21 | 33.83543 | -79.35000 | 36074 ft | 386 kts | 221° |
| 2026-05-04 22:21 | 33.79132 | -79.38664 | 36076 ft | 385 kts | 221° |
| 2026-05-04 22:22 | 33.74719 | -79.42325 | 36074 ft | 385 kts | 221° |
| 2026-05-04 22:22 | 33.70315 | -79.45976 | 36074 ft | 384 kts | 221° |
| 2026-05-04 22:23 | 33.65917 | -79.49619 | 36071 ft | 384 kts | 221° |
| 2026-05-04 22:23 | 33.61524 | -79.53252 | 36071 ft | 383 kts | 221° |
| 2026-05-04 22:24 | 33.57133 | -79.56876 | 36073 ft | 383 kts | 221° |
| 2026-05-04 22:24 | 33.52744 | -79.60495 | 36067 ft | 383 kts | 221° |
| 2026-05-04 22:25 | 33.48361 | -79.64104 | 36068 ft | 382 kts | 221° |
| 2026-05-04 22:25 | 33.43985 | -79.67705 | 36073 ft | 381 kts | 221° |
| 2026-05-04 22:26 | 33.39613 | -79.71298 | 36081 ft | 381 kts | 221° |
| 2026-05-04 22:26 | 33.35243 | -79.74884 | 36076 ft | 381 kts | 221° |
| 2026-05-04 22:27 | 33.30872 | -79.78463 | 36076 ft | 380 kts | 221° |
| 2026-05-04 22:27 | 33.26506 | -79.82034 | 36075 ft | 380 kts | 221° |
| 2026-05-04 22:28 | 33.22148 | -79.85596 | 36076 ft | 379 kts | 221° |
| 2026-05-04 22:28 | 33.18526 | -79.88553 | 36073 ft | 379 kts | 221° |
| 2026-05-04 22:29 | 33.14173 | -79.92104 | 36074 ft | 379 kts | 221° |
| 2026-05-04 22:29 | 33.09821 | -79.95647 | 36084 ft | 378 kts | 221° |
| 2026-05-04 22:30 | 33.05476 | -79.99181 | 36076 ft | 378 kts | 221° |
| 2026-05-04 22:30 | 33.01132 | -80.02708 | 36093 ft | 378 kts | 221° |
| 2026-05-04 22:31 | 32.96794 | -80.06228 | 36093 ft | 377 kts | 221° |
| 2026-05-04 22:31 | 32.92458 | -80.09744 | 36090 ft | 377 kts | 221° |
| 2026-05-04 22:32 | 32.88128 | -80.13250 | 36093 ft | 376 kts | 221° |
| 2026-05-04 22:32 | 32.83800 | -80.16747 | 36094 ft | 376 kts | 220° |
| 2026-05-04 22:33 | 32.79470 | -80.20242 | 36090 ft | 376 kts | 220° |
| 2026-05-04 22:33 | 32.75168 | -80.23712 | 36098 ft | 375 kts | 220° |
| 2026-05-04 22:34 | 32.70819 | -80.27217 | 36094 ft | 375 kts | 220° |
| 2026-05-04 22:34 | 32.66526 | -80.30672 | 36093 ft | 375 kts | 220° |
| 2026-05-04 22:35 | 32.62209 | -80.34140 | 36091 ft | 375 kts | 220° |
| 2026-05-04 22:35 | 32.57888 | -80.37592 | 36090 ft | 375 kts | 219° |
| 2026-05-04 22:36 | 32.53330 | -80.40691 | 36090 ft | 377 kts | 217° |
| 2026-05-04 22:36 | 32.48783 | -80.43776 | 36091 ft | 377 kts | 217° |
| 2026-05-04 22:37 | 32.44227 | -80.46843 | 36093 ft | 376 kts | 217° |
| 2026-05-04 22:37 | 32.39684 | -80.49909 | 36093 ft | 376 kts | 217° |
| 2026-05-04 22:38 | 32.35138 | -80.52970 | 36085 ft | 375 kts | 217° |
| 2026-05-04 22:38 | 32.30599 | -80.56022 | 36093 ft | 375 kts | 217° |
| 2026-05-04 22:39 | 32.26067 | -80.59064 | 36094 ft | 374 kts | 217° |
| 2026-05-04 22:39 | 32.21542 | -80.62100 | 36087 ft | 374 kts | 217° |
| 2026-05-04 22:40 | 32.17014 | -80.65135 | 36083 ft | 374 kts | 217° |
| 2026-05-04 22:40 | 32.12499 | -80.68158 | 36076 ft | 373 kts | 217° |
| 2026-05-04 22:41 | 32.07983 | -80.71177 | 36074 ft | 372 kts | 217° |
| 2026-05-04 22:41 | 32.03506 | -80.74166 | 36071 ft | 372 kts | 217° |
| 2026-05-04 22:42 | 31.99004 | -80.77168 | 36070 ft | 372 kts | 217° |
| 2026-05-04 22:42 | 31.94506 | -80.80166 | 36064 ft | 371 kts | 217° |
| 2026-05-04 22:43 | 31.90015 | -80.83156 | 36064 ft | 371 kts | 217° |
| 2026-05-04 22:43 | 31.85531 | -80.86138 | 36069 ft | 370 kts | 217° |
| 2026-05-04 22:44 | 31.81049 | -80.89113 | 36065 ft | 370 kts | 217° |
| 2026-05-04 22:44 | 31.76569 | -80.92083 | 36065 ft | 369 kts | 217° |
| 2026-05-04 22:45 | 31.72088 | -80.95052 | 36070 ft | 369 kts | 217° |
| 2026-05-04 22:45 | 31.65380 | -80.99490 | 36068 ft | 369 kts | 217° |
| 2026-05-04 22:46 | 31.60910 | -81.02444 | 36071 ft | 368 kts | 217° |
| 2026-05-04 22:46 | 31.56404 | -81.05313 | 36070 ft | 369 kts | 215° |
| 2026-05-04 22:47 | 31.51850 | -81.08112 | 36073 ft | 369 kts | 215° |
| 2026-05-04 22:47 | 31.47306 | -81.10899 | 36076 ft | 369 kts | 215° |
| 2026-05-04 22:48 | 31.42762 | -81.13679 | 36075 ft | 368 kts | 215° |
| 2026-05-04 22:48 | 31.38222 | -81.16455 | 36077 ft | 368 kts | 215° |
| 2026-05-04 22:49 | 31.33652 | -81.19178 | 36084 ft | 368 kts | 214° |
| 2026-05-04 22:49 | 31.29084 | -81.21886 | 36079 ft | 368 kts | 215° |
| 2026-05-04 22:50 | 31.26793 | -81.23251 | 35923 ft | 371 kts | 214° |
| 2026-05-04 22:50 | 31.24487 | -81.24614 | 35676 ft | 373 kts | 213° |
| 2026-05-04 22:50 | 31.22076 | -81.25808 | 35432 ft | 379 kts | 209° |
| 2026-05-04 22:50 | 31.19554 | -81.26789 | 35118 ft | 387 kts | 205° |
| 2026-05-04 22:51 | 31.16909 | -81.27539 | 34753 ft | 396 kts | 200° |
| 2026-05-04 22:51 | 31.14156 | -81.28033 | 34404 ft | 405 kts | 195° |
| 2026-05-04 22:51 | 31.11318 | -81.28242 | 34177 ft | 411 kts | 191° |
| 2026-05-04 22:51 | 31.08458 | -81.28225 | 34111 ft | 409 kts | 189° |
| 2026-05-04 22:52 | 31.02840 | -81.28222 | 34084 ft | 399 kts | 190° |
| 2026-05-04 22:52 | 30.97330 | -81.28209 | 34074 ft | 393 kts | 190° |
| 2026-05-04 22:53 | 30.91938 | -81.28195 | 34077 ft | 388 kts | 190° |
| 2026-05-04 22:53 | 30.86569 | -81.28181 | 34073 ft | 384 kts | 191° |
| 2026-05-04 22:54 | 30.81246 | -81.28167 | 33979 ft | 383 kts | 191° |
| 2026-05-04 22:54 | 30.78543 | -81.28170 | 33492 ft | 393 kts | 190° |
| 2026-05-04 22:54 | 30.75774 | -81.28165 | 32971 ft | 402 kts | 190° |
| 2026-05-04 22:55 | 30.72961 | -81.28152 | 32439 ft | 406 kts | 189° |
| 2026-05-04 22:55 | 30.70130 | -81.28139 | 31903 ft | 409 kts | 189° |
| 2026-05-04 22:55 | 30.67276 | -81.28134 | 31361 ft | 411 kts | 189° |
| 2026-05-04 22:55 | 30.64408 | -81.28131 | 30817 ft | 414 kts | 189° |
| 2026-05-04 22:56 | 30.61516 | -81.28120 | 30271 ft | 416 kts | 189° |
| 2026-05-04 22:56 | 30.58604 | -81.28036 | 29678 ft | 421 kts | 186° |
| 2026-05-04 22:56 | 30.55683 | -81.27864 | 29122 ft | 420 kts | 186° |
| 2026-05-04 22:56 | 30.52759 | -81.27725 | 28562 ft | 420 kts | 186° |
| 2026-05-04 22:57 | 30.49842 | -81.27591 | 28008 ft | 421 kts | 186° |
| 2026-05-04 22:57 | 30.46915 | -81.27435 | 27451 ft | 421 kts | 185° |
| 2026-05-04 22:57 | 30.43984 | -81.27281 | 26892 ft | 422 kts | 185° |
| 2026-05-04 22:57 | 30.41042 | -81.27128 | 26325 ft | 423 kts | 185° |
| 2026-05-04 22:58 | 30.38104 | -81.26984 | 25768 ft | 424 kts | 185° |
| 2026-05-04 22:58 | 30.35152 | -81.26832 | 25210 ft | 425 kts | 185° |
| 2026-05-04 22:58 | 30.32260 | -81.26676 | 24660 ft | 409 kts | 184° |
| 2026-05-04 22:58 | 30.29453 | -81.26529 | 24126 ft | 398 kts | 185° |
| 2026-05-04 22:59 | 30.26719 | -81.26394 | 23596 ft | 390 kts | 185° |
| 2026-05-04 22:59 | 30.24035 | -81.26242 | 23052 ft | 382 kts | 184° |
| 2026-05-04 22:59 | 30.21405 | -81.26062 | 22552 ft | 375 kts | 184° |
| 2026-05-04 22:59 | 30.18820 | -81.25897 | 22067 ft | 369 kts | 184° |
| 2026-05-04 23:00 | 30.16274 | -81.25747 | 21583 ft | 364 kts | 184° |
| 2026-05-04 23:00 | 30.13753 | -81.25595 | 21105 ft | 361 kts | 184° |
| 2026-05-04 23:00 | 30.11262 | -81.25442 | 20632 ft | 357 kts | 184° |
| 2026-05-04 23:00 | 30.08787 | -81.25286 | 20162 ft | 355 kts | 184° |
| 2026-05-04 23:01 | 30.06326 | -81.25139 | 19697 ft | 353 kts | 184° |
| 2026-05-04 23:01 | 30.03881 | -81.24986 | 19232 ft | 351 kts | 184° |
| 2026-05-04 23:01 | 30.01446 | -81.24840 | 18774 ft | 350 kts | 184° |
| 2026-05-04 23:01 | 29.99018 | -81.24688 | 18297 ft | 349 kts | 184° |
| 2026-05-04 23:02 | 29.96600 | -81.24542 | 17815 ft | 347 kts | 183° |
| 2026-05-04 23:02 | 29.94190 | -81.24393 | 17267 ft | 346 kts | 184° |
| 2026-05-04 23:02 | 29.91793 | -81.24257 | 16803 ft | 343 kts | 185° |
| 2026-05-04 23:02 | 29.89447 | -81.24215 | 16357 ft | 341 kts | 185° |
| 2026-05-04 23:03 | 29.87074 | -81.24094 | 15910 ft | 341 kts | 184° |
| 2026-05-04 23:03 | 29.84682 | -81.23985 | 15455 ft | 339 kts | 185° |
| 2026-05-04 23:03 | 29.82327 | -81.23903 | 15009 ft | 338 kts | 185° |
| 2026-05-04 23:03 | 29.80001 | -81.23832 | 14566 ft | 338 kts | 185° |
| 2026-05-04 23:04 | 29.77621 | -81.23742 | 14117 ft | 338 kts | 185° |
| 2026-05-04 23:04 | 29.75270 | -81.23656 | 13647 ft | 337 kts | 185° |
| 2026-05-04 23:04 | 29.72925 | -81.23566 | 13185 ft | 336 kts | 185° |
| 2026-05-04 23:04 | 29.70590 | -81.23485 | 12746 ft | 335 kts | 184° |
| 2026-05-04 23:05 | 29.68259 | -81.23398 | 12302 ft | 335 kts | 184° |
| 2026-05-04 23:05 | 29.65948 | -81.23316 | 12037 ft | 324 kts | 184° |
| 2026-05-04 23:05 | 29.63762 | -81.23191 | 11998 ft | 309 kts | 183° |
| 2026-05-04 23:05 | 29.61633 | -81.23060 | 11983 ft | 304 kts | 184° |
| 2026-05-04 23:06 | 29.59528 | -81.22942 | 11983 ft | 301 kts | 184° |
| 2026-05-04 23:06 | 29.57441 | -81.22834 | 11894 ft | 301 kts | 184° |
| 2026-05-04 23:06 | 29.55329 | -81.22716 | 11678 ft | 306 kts | 183° |
| 2026-05-04 23:06 | 29.53189 | -81.22601 | 11424 ft | 311 kts | 183° |
| 2026-05-04 23:07 | 29.51012 | -81.22476 | 11154 ft | 312 kts | 183° |
| 2026-05-04 23:07 | 29.48845 | -81.22356 | 10885 ft | 312 kts | 182° |
| 2026-05-04 23:07 | 29.46673 | -81.22234 | 10607 ft | 312 kts | 182° |
| 2026-05-04 23:07 | 29.44530 | -81.22117 | 10339 ft | 312 kts | 182° |
| 2026-05-04 23:08 | 29.42369 | -81.21995 | 10064 ft | 309 kts | 182° |
| 2026-05-04 23:08 | 29.40236 | -81.21880 | 9781 ft | 305 kts | 182° |
| 2026-05-04 23:08 | 29.38126 | -81.21759 | 9506 ft | 301 kts | 181° |
| 2026-05-04 23:08 | 29.36047 | -81.21645 | 9243 ft | 298 kts | 182° |
| 2026-05-04 23:09 | 29.33990 | -81.21567 | 8974 ft | 295 kts | 182° |
| 2026-05-04 23:09 | 29.31940 | -81.21490 | 8712 ft | 294 kts | 181° |
| 2026-05-04 23:09 | 29.29902 | -81.21406 | 8453 ft | 292 kts | 181° |
| 2026-05-04 23:09 | 29.27877 | -81.21320 | 8200 ft | 291 kts | 181° |
| 2026-05-04 23:10 | 29.25858 | -81.21235 | 7946 ft | 290 kts | 181° |
| 2026-05-04 23:10 | 29.23845 | -81.21092 | 7689 ft | 289 kts | 177° |
| 2026-05-04 23:10 | 29.21856 | -81.20938 | 7438 ft | 284 kts | 181° |
| 2026-05-04 23:10 | 29.20553 | -81.20896 | 7274 ft | 281 kts | 181° |
| 2026-05-04 23:11 | 29.18617 | -81.20786 | 7026 ft | 276 kts | 179° |
| 2026-05-04 23:11 | 29.16702 | -81.20650 | 6784 ft | 273 kts | 179° |
| 2026-05-04 23:11 | 29.14812 | -81.20514 | 6545 ft | 271 kts | 179° |
| 2026-05-04 23:11 | 29.12934 | -81.20389 | 6302 ft | 270 kts | 179° |
| 2026-05-04 23:12 | 29.11069 | -81.20336 | 6059 ft | 266 kts | 184° |
| 2026-05-04 23:12 | 29.09218 | -81.20344 | 5825 ft | 265 kts | 180° |
| 2026-05-04 23:12 | 29.07378 | -81.20274 | 5590 ft | 264 kts | 180° |
| 2026-05-04 23:12 | 29.05545 | -81.20248 | 5357 ft | 262 kts | 180° |
| 2026-05-04 23:13 | 29.03727 | -81.20242 | 5127 ft | 261 kts | 180° |
| 2026-05-04 23:13 | 29.01941 | -81.20407 | 5027 ft | 254 kts | 194° |
| 2026-05-04 23:13 | 29.00267 | -81.20947 | 5003 ft | 246 kts | 195° |
| 2026-05-04 23:13 | 28.98641 | -81.21437 | 4996 ft | 238 kts | 195° |
| 2026-05-04 23:14 | 28.97060 | -81.21916 | 4983 ft | 233 kts | 195° |
| 2026-05-04 23:14 | 28.95506 | -81.22390 | 4959 ft | 229 kts | 195° |
| 2026-05-04 23:14 | 28.93973 | -81.22853 | 4927 ft | 227 kts | 195° |
| 2026-05-04 23:14 | 28.92455 | -81.23316 | 4894 ft | 225 kts | 195° |
| 2026-05-04 23:15 | 28.90981 | -81.23882 | 4833 ft | 224 kts | 207° |
| 2026-05-04 23:15 | 28.89641 | -81.24860 | 4548 ft | 233 kts | 213° |
| 2026-05-04 23:15 | 28.88276 | -81.25940 | 4202 ft | 244 kts | 214° |
| 2026-05-04 23:15 | 28.86850 | -81.27049 | 3854 ft | 252 kts | 212° |
| 2026-05-04 23:16 | 28.85395 | -81.28195 | 3517 ft | 255 kts | 213° |
| 2026-05-04 23:16 | 28.83941 | -81.29350 | 3180 ft | 255 kts | 213° |
| 2026-05-04 23:16 | 28.82521 | -81.30483 | 3040 ft | 247 kts | 213° |
| 2026-05-04 23:16 | 28.81151 | -81.31586 | 2999 ft | 236 kts | 212° |
| 2026-05-04 23:17 | 28.79807 | -81.32676 | 2987 ft | 233 kts | 213° |
| 2026-05-04 23:17 | 28.78505 | -81.33728 | 2983 ft | 233 kts | 213° |
| 2026-05-04 23:17 | 28.77168 | -81.34810 | 2982 ft | 233 kts | 213° |
| 2026-05-04 23:17 | 28.75869 | -81.35868 | 2984 ft | 231 kts | 213° |
| 2026-05-04 23:18 | 28.74560 | -81.36921 | 2998 ft | 230 kts | 213° |
| 2026-05-04 23:18 | 28.73251 | -81.37962 | 2993 ft | 228 kts | 213° |
| 2026-05-04 23:18 | 28.71954 | -81.38999 | 2990 ft | 228 kts | 213° |
| 2026-05-04 23:18 | 28.70662 | -81.40041 | 2994 ft | 227 kts | 213° |
| 2026-05-04 23:19 | 28.69368 | -81.41082 | 2997 ft | 228 kts | 213° |
| 2026-05-04 23:19 | 28.68068 | -81.42127 | 2999 ft | 229 kts | 212° |
| 2026-05-04 23:19 | 28.66772 | -81.43180 | 2998 ft | 229 kts | 213° |
| 2026-05-04 23:19 | 28.65471 | -81.44238 | 2995 ft | 230 kts | 213° |
| 2026-05-04 23:20 | 28.64172 | -81.45296 | 2994 ft | 230 kts | 213° |
| 2026-05-04 23:20 | 28.62841 | -81.46368 | 2806 ft | 238 kts | 213° |
| 2026-05-04 23:20 | 28.61499 | -81.47447 | 2608 ft | 233 kts | 213° |
| 2026-05-04 23:20 | 28.60164 | -81.48438 | 2406 ft | 225 kts | 201° |
| 2026-05-04 23:21 | 28.58710 | -81.48532 | 2201 ft | 202 kts | 160° |
| 2026-05-04 23:21 | 28.57445 | -81.47994 | 2082 ft | 187 kts | 154° |
| 2026-05-04 23:21 | 28.56278 | -81.47455 | 2043 ft | 177 kts | 153° |
| 2026-05-04 23:21 | 28.55159 | -81.46936 | 2021 ft | 171 kts | 153° |
| 2026-05-04 23:22 | 28.54071 | -81.46439 | 1995 ft | 166 kts | 154° |
| 2026-05-04 23:22 | 28.53046 | -81.45899 | 1992 ft | 157 kts | 136° |
| 2026-05-04 23:22 | 28.52339 | -81.44983 | 1986 ft | 153 kts | 122° |
| 2026-05-04 23:22 | 28.51915 | -81.43909 | 1988 ft | 148 kts | 107° |
| 2026-05-04 23:23 | 28.51557 | -81.42824 | 1988 ft | 145 kts | 102° |
| 2026-05-04 23:23 | 28.51564 | -81.41676 | 1692 ft | 153 kts | 78° |
| 2026-05-04 23:23 | 28.51812 | -81.40523 | 1408 ft | 143 kts | 73° |
| 2026-05-04 23:23 | 28.52111 | -81.39592 | 1207 ft | 112 kts | 66° |
| 2026-05-04 23:24 | 28.52417 | -81.38796 | 976 ft | 106 kts | 66° |
| 2026-05-04 23:24 | 28.52713 | -81.38040 | 817 ft | 103 kts | 69° |
| 2026-05-04 23:24 | 28.52999 | -81.37307 | 654 ft | 101 kts | 68° |
| 2026-05-04 23:24 | 28.53267 | -81.36566 | 554 ft | 100 kts | 67° |
| 2026-05-04 23:25 | 28.53557 | -81.35840 | 434 ft | 100 kts | 70° |
| 2026-05-04 23:25 | 28.53821 | -81.35120 | 345 ft | 97 kts | 68° |
| 2026-05-04 23:25 | 28.54096 | -81.34417 | 214 ft | 98 kts | 70° |
| 2026-05-04 23:25 | 28.54351 | -81.33746 | 108 ft | 85 kts | 70° |
| 2026-05-04 23:26 | 28.54535 | -81.33260 | 112 ft | 34 kts | 67° |
| 2026-05-04 23:26 | 28.54676 | -81.33151 | 112 ft | 18 kts | 350° |
| 2026-05-04 23:26 | 28.54689 | -81.33153 | 113 ft | 0 kts | 350° |
| 2026-05-04 23:28 | 28.54694 | -81.33154 | 112 ft | 4 kts | 349° |
| 2026-05-04 23:28 | 28.54720 | -81.33183 | 112 ft | 6 kts | 287° |
| 2026-05-04 23:29 | 28.54718 | -81.33255 | 111 ft | 13 kts | 263° |
| 2026-05-04 23:29 | 28.54705 | -81.33378 | 110 ft | 17 kts | 263° |
| 2026-05-04 23:29 | 28.54692 | -81.33514 | 110 ft | 17 kts | 265° |
| 2026-05-04 23:29 | 28.54715 | -81.33646 | 111 ft | 17 kts | 308° |
| 2026-05-04 23:30 | 28.54817 | -81.33637 | 111 ft | 16 kts | 32° |